sensor_id;sensor_type;location;lat;lon;timestamp;temperature;humidity
15048;DHT22;7621;52.350;13.308;2023-02-26T06:35:03;2.40;99.90
15048;DHT22;7621;52.350;13.308;2023-02-26T06:37:29;2.40;99.90
15048;DHT22;7621;52.350;13.308;2023-02-26T06:39:54;2.60;99.90
15048;DHT22;7621;52.350;13.308;2023-02-26T06:42:20;2.80;99.90
15048;DHT22;7621;52.350;13.308;2023-02-26T06:44:45;3.10;99.90
15048;DHT22;7621;52.350;13.308;2023-02-26T06:47:11;3.20;99.90
15048;DHT22;7621;52.350;13.308;2023-02-26T06:49:36;3.30;99.90
15048;DHT22;7621;52.350;13.308;2023-02-26T06:52:02;3.30;99.90
15048;DHT22;7621;52.350;13.308;2023-02-26T06:54:27;3.30;99.90
15048;DHT22;7621;52.350;13.308;2023-02-26T06:56:53;3.30;99.90
15048;DHT22;7621;52.350;13.308;2023-02-26T06:59:22;3.30;99.90
15048;DHT22;7621;52.350;13.308;2023-02-26T07:01:48;3.40;99.90
15048;DHT22;7621;52.350;13.308;2023-02-26T07:04:14;3.50;99.90
15048;DHT22;7621;52.350;13.308;2023-02-26T07:06:39;3.60;99.90
15048;DHT22;7621;52.350;13.308;2023-02-26T07:09:05;3.60;99.90
15048;DHT22;7621;52.350;13.308;2023-02-26T07:11:30;3.60;99.90
15048;DHT22;7621;52.350;13.308;2023-02-26T07:13:56;3.70;99.90
15048;DHT22;7621;52.350;13.308;2023-02-26T07:16:22;3.70;99.90
15048;DHT22;7621;52.350;13.308;2023-02-26T07:18:47;3.90;99.90
15048;DHT22;7621;52.350;13.308;2023-02-26T07:21:13;4.20;99.90
15048;DHT22;7621;52.350;13.308;2023-02-26T07:23:43;4.50;99.90
15048;DHT22;7621;52.350;13.308;2023-02-26T07:26:09;4.80;99.90
15048;DHT22;7621;52.350;13.308;2023-02-26T07:28:35;5.20;99.90
15048;DHT22;7621;52.350;13.308;2023-02-26T07:31:01;5.40;99.10
15048;DHT22;7621;52.350;13.308;2023-02-26T07:33:26;5.70;98.50
15048;DHT22;7621;52.350;13.308;2023-02-26T07:35:53;6.20;98.50
15048;DHT22;7621;52.350;13.308;2023-02-26T07:38:18;6.80;98.40
15048;DHT22;7621;52.350;13.308;2023-02-26T07:40:44;7.50;97.90
15048;DHT22;7621;52.350;13.308;2023-02-26T07:43:10;8.20;95.90
15048;DHT22;7621;52.350;13.308;2023-02-26T07:45:35;8.40;92.80
15048;DHT22;7621;52.350;13.308;2023-02-26T07:48:01;8.40;91.40
15048;DHT22;7621;52.350;13.308;2023-02-26T07:50:26;8.40;91.10
15048;DHT22;7621;52.350;13.308;2023-02-26T07:52:52;8.70;91.70
15048;DHT22;7621;52.350;13.308;2023-02-26T07:55:18;9.20;90.50
15048;DHT22;7621;52.350;13.308;2023-02-26T07:57:44;9.70;89.50
15048;DHT22;7621;52.350;13.308;2023-02-26T08:00:10;10.20;87.00
15048;DHT22;7621;52.350;13.308;2023-02-26T08:02:36;10.70;84.80
15048;DHT22;7621;52.350;13.308;2023-02-26T08:05:02;11.10;80.70
15048;DHT22;7621;52.350;13.308;2023-02-26T08:07:27;11.20;77.00
15048;DHT22;7621;52.350;13.308;2023-02-26T08:09:53;11.10;76.80
15048;DHT22;7621;52.350;13.308;2023-02-26T08:12:18;11.10;77.10
15048;DHT22;7621;52.350;13.308;2023-02-26T08:14:44;11.00;75.70
15048;DHT22;7621;52.350;13.308;2023-02-26T08:17:10;11.10;75.60
15048;DHT22;7621;52.350;13.308;2023-02-26T08:19:36;11.10;74.40
15048;DHT22;7621;52.350;13.308;2023-02-26T08:22:01;11.20;75.30
15048;DHT22;7621;52.350;13.308;2023-02-26T08:24:27;11.50;75.40
15048;DHT22;7621;52.350;13.308;2023-02-26T08:26:53;11.70;73.90
15048;DHT22;7621;52.350;13.308;2023-02-26T08:29:19;11.90;71.10
15048;DHT22;7621;52.350;13.308;2023-02-26T08:31:45;12.10;71.40
15048;DHT22;7621;52.350;13.308;2023-02-26T08:34:11;12.30;69.50
15048;DHT22;7621;52.350;13.308;2023-02-26T08:36:36;12.60;68.70
15048;DHT22;7621;52.350;13.308;2023-02-26T08:39:02;13.10;68.40
15048;DHT22;7621;52.350;13.308;2023-02-26T08:41:28;13.80;67.80
15048;DHT22;7621;52.350;13.308;2023-02-26T08:43:56;14.70;65.10
15048;DHT22;7621;52.350;13.308;2023-02-26T08:46:22;15.50;59.50
15048;DHT22;7621;52.350;13.308;2023-02-26T08:48:47;16.20;57.20
15048;DHT22;7621;52.350;13.308;2023-02-26T08:51:13;16.60;54.40
15048;DHT22;7621;52.350;13.308;2023-02-26T08:53:38;16.90;53.30
15048;DHT22;7621;52.350;13.308;2023-02-26T08:56:04;17.30;52.50
15048;DHT22;7621;52.350;13.308;2023-02-26T08:58:30;17.80;50.70
15048;DHT22;7621;52.350;13.308;2023-02-26T09:00:56;18.30;49.80
15048;DHT22;7621;52.350;13.308;2023-02-26T09:03:22;18.90;48.50
15048;DHT22;7621;52.350;13.308;2023-02-26T09:05:49;19.50;46.90
15048;DHT22;7621;52.350;13.308;2023-02-26T09:08:16;20.20;46.00
15048;DHT22;7621;52.350;13.308;2023-02-26T09:10:42;20.80;43.90
15048;DHT22;7621;52.350;13.308;2023-02-26T09:13:08;21.40;42.80
15048;DHT22;7621;52.350;13.308;2023-02-26T09:15:33;21.80;41.80
15048;DHT22;7621;52.350;13.308;2023-02-26T09:17:59;22.30;40.40
15048;DHT22;7621;52.350;13.308;2023-02-26T09:20:25;22.40;39.30
15048;DHT22;7621;52.350;13.308;2023-02-26T09:22:51;22.50;39.30
15048;DHT22;7621;52.350;13.308;2023-02-26T09:25:17;23.00;38.60
15048;DHT22;7621;52.350;13.308;2023-02-26T09:27:42;23.30;38.10
15048;DHT22;7621;52.350;13.308;2023-02-26T09:30:09;23.80;37.50
15048;DHT22;7621;52.350;13.308;2023-02-26T09:32:35;24.20;36.40
15048;DHT22;7621;52.350;13.308;2023-02-26T09:35:00;24.10;35.40
15048;DHT22;7621;52.350;13.308;2023-02-26T09:37:27;23.80;35.90
15048;DHT22;7621;52.350;13.308;2023-02-26T09:39:52;24.10;35.80
15048;DHT22;7621;52.350;13.308;2023-02-26T09:42:26;23.90;35.90
15048;DHT22;7621;52.350;13.308;2023-02-26T09:44:54;24.20;35.40
15048;DHT22;7621;52.350;13.308;2023-02-26T09:47:29;24.10;34.80
15048;DHT22;7621;52.350;13.308;2023-02-26T09:50:00;22.50;34.60
15048;DHT22;7621;52.350;13.308;2023-02-26T09:52:40;21.50;37.40
15048;DHT22;7621;52.350;13.308;2023-02-26T09:55:27;21.80;38.90
15048;DHT22;7621;52.350;13.308;2023-02-26T09:57:59;22.70;37.50
15048;DHT22;7621;52.350;13.308;2023-02-26T10:00:43;22.10;36.30
15048;DHT22;7621;52.350;13.308;2023-02-26T10:03:45;21.10;37.10
15048;DHT22;7621;52.350;13.308;2023-02-26T10:06:21;19.30;38.90
15048;DHT22;7621;52.350;13.308;2023-02-26T10:20:13;20.30;38.80
15048;DHT22;7621;52.350;13.308;2023-02-26T10:25:28;19.70;39.80
15048;DHT22;7621;52.350;13.308;2023-02-26T10:31:26;20.10;39.90
15048;DHT22;7621;52.350;13.308;2023-02-26T10:36:47;19.00;40.60
15048;DHT22;7621;52.350;13.308;2023-02-26T10:39:22;17.90;41.10
15048;DHT22;7621;52.350;13.308;2023-02-26T10:41:51;16.60;42.80
15048;DHT22;7621;52.350;13.308;2023-02-26T10:44:38;15.60;45.20
15048;DHT22;7621;52.350;13.308;2023-02-26T10:47:18;15.00;46.70
15048;DHT22;7621;52.350;13.308;2023-02-26T10:50:05;14.00;48.40
15048;DHT22;7621;52.350;13.308;2023-02-26T10:52:32;13.20;50.10
15048;DHT22;7621;52.350;13.308;2023-02-26T10:57:49;11.70;52.50
15048;DHT22;7621;52.350;13.308;2023-02-26T11:00:18;11.10;54.20
15048;DHT22;7621;52.350;13.308;2023-02-26T11:02:52;10.50;54.40
15048;DHT22;7621;52.350;13.308;2023-02-26T11:05:22;9.90;55.30
15048;DHT22;7621;52.350;13.308;2023-02-26T11:07:53;9.60;56.70
15048;DHT22;7621;52.350;13.308;2023-02-26T11:10:24;9.60;58.00
15048;DHT22;7621;52.350;13.308;2023-02-26T11:12:51;9.70;58.10
15048;DHT22;7621;52.350;13.308;2023-02-26T11:15:20;9.70;57.80
15048;DHT22;7621;52.350;13.308;2023-02-26T11:17:53;9.70;57.20
15048;DHT22;7621;52.350;13.308;2023-02-26T11:20:36;9.90;57.20
15048;DHT22;7621;52.350;13.308;2023-02-26T11:23:06;10.20;57.50
15048;DHT22;7621;52.350;13.308;2023-02-26T11:25:37;10.40;56.80
15048;DHT22;7621;52.350;13.308;2023-02-26T11:28:06;10.60;56.50
15048;DHT22;7621;52.350;13.308;2023-02-26T11:30:36;10.60;56.20
15048;DHT22;7621;52.350;13.308;2023-02-26T11:33:22;10.50;56.20
15048;DHT22;7621;52.350;13.308;2023-02-26T11:35:49;10.30;55.60
15048;DHT22;7621;52.350;13.308;2023-02-26T11:38:21;10.00;56.00
15048;DHT22;7621;52.350;13.308;2023-02-26T11:40:54;9.60;56.10
15048;DHT22;7621;52.350;13.308;2023-02-26T11:43:22;9.30;56.40
15048;DHT22;7621;52.350;13.308;2023-02-26T11:45:53;9.00;57.30
15048;DHT22;7621;52.350;13.308;2023-02-26T11:48:24;9.00;58.60
15048;DHT22;7621;52.350;13.308;2023-02-26T11:50:55;9.00;58.60
15048;DHT22;7621;52.350;13.308;2023-02-26T11:53:34;8.90;58.20
15048;DHT22;7621;52.350;13.308;2023-02-26T11:56:29;8.80;58.00
15048;DHT22;7621;52.350;13.308;2023-02-26T11:58:58;8.50;58.50
15048;DHT22;7621;52.350;13.308;2023-02-26T12:01:28;8.30;58.80
15048;DHT22;7621;52.350;13.308;2023-02-26T12:03:58;8.10;58.90
15048;DHT22;7621;52.350;13.308;2023-02-26T12:06:24;7.80;59.10
15048;DHT22;7621;52.350;13.308;2023-02-26T12:08:50;7.50;59.90
15048;DHT22;7621;52.350;13.308;2023-02-26T12:19:59;7.60;60.40
15048;DHT22;7621;52.350;13.308;2023-02-26T12:22:41;7.70;60.60
15048;DHT22;7621;52.350;13.308;2023-02-26T12:36:03;7.30;62.90
15048;DHT22;7621;52.350;13.308;2023-02-26T12:49:30;7.20;63.60
15048;DHT22;7621;52.350;13.308;2023-02-26T12:57:44;7.30;64.30
15048;DHT22;7621;52.350;13.308;2023-02-26T13:20:16;7.80;63.60
15048;DHT22;7621;52.350;13.308;2023-02-26T13:27:46;7.70;62.40
15048;DHT22;7621;52.350;13.308;2023-02-26T13:30:50;7.50;62.50
15048;DHT22;7621;52.350;13.308;2023-02-26T13:33:18;7.30;62.60
15048;DHT22;7621;52.350;13.308;2023-02-26T13:35:46;7.00;63.40
15048;DHT22;7621;52.350;13.308;2023-02-26T13:40:55;6.80;64.20
15048;DHT22;7621;52.350;13.308;2023-02-26T13:43:44;6.80;64.40
15048;DHT22;7621;52.350;13.308;2023-02-26T13:46:41;7.00;65.00
15048;DHT22;7621;52.350;13.308;2023-02-26T13:51:56;7.30;62.70
15048;DHT22;7621;52.350;13.308;2023-02-26T13:54:42;7.30;62.80
15048;DHT22;7621;52.350;13.308;2023-02-26T14:00:32;7.30;62.40
15048;DHT22;7621;52.350;13.308;2023-02-26T14:03:10;7.10;62.40
15048;DHT22;7621;52.350;13.308;2023-02-26T16:36:03;4.50;68.50
15048;DHT22;7621;52.350;13.308;2023-02-26T16:38:32;4.50;68.80
15048;DHT22;7621;52.350;13.308;2023-02-26T16:41:08;4.50;69.00
15048;DHT22;7621;52.350;13.308;2023-02-26T16:43:50;4.50;69.20
15048;DHT22;7621;52.350;13.308;2023-02-26T16:46:41;4.40;69.70
15048;DHT22;7621;52.350;13.308;2023-02-26T16:49:28;4.40;70.10
15048;DHT22;7621;52.350;13.308;2023-02-26T16:51:55;4.40;70.00
15048;DHT22;7621;52.350;13.308;2023-02-26T16:54:29;4.30;70.20
15048;DHT22;7621;52.350;13.308;2023-02-26T16:56:59;4.20;70.40
15048;DHT22;7621;52.350;13.308;2023-02-26T16:59:31;4.10;70.90
15048;DHT22;7621;52.350;13.308;2023-02-26T17:02:13;4.10;71.60
15048;DHT22;7621;52.350;13.308;2023-02-26T17:04:41;4.00;72.10
15048;DHT22;7621;52.350;13.308;2023-02-26T17:07:26;4.00;72.40
15048;DHT22;7621;52.350;13.308;2023-02-26T17:10:05;4.00;72.60
15048;DHT22;7621;52.350;13.308;2023-02-26T17:13:23;3.90;72.80
15048;DHT22;7621;52.350;13.308;2023-02-26T17:15:33;3.90;73.00
15048;DHT22;7621;52.350;13.308;2023-02-26T17:18:00;3.90;73.30
15048;DHT22;7621;52.350;13.308;2023-02-26T17:20:27;4.00;73.30
15048;DHT22;7621;52.350;13.308;2023-02-26T17:22:54;4.00;73.50
15048;DHT22;7621;52.350;13.308;2023-02-26T17:25:20;3.90;73.40
15048;DHT22;7621;52.350;13.308;2023-02-26T17:27:47;3.90;73.40
15048;DHT22;7621;52.350;13.308;2023-02-26T17:30:15;3.80;73.70
15048;DHT22;7621;52.350;13.308;2023-02-26T17:32:42;3.80;74.00
15048;DHT22;7621;52.350;13.308;2023-02-26T17:35:12;3.60;74.20
15048;DHT22;7621;52.350;13.308;2023-02-26T17:37:38;3.60;74.50
15048;DHT22;7621;52.350;13.308;2023-02-26T17:40:13;3.60;75.20
15048;DHT22;7621;52.350;13.308;2023-02-26T17:42:40;3.50;75.30
15048;DHT22;7621;52.350;13.308;2023-02-26T17:45:06;3.50;75.60
15048;DHT22;7621;52.350;13.308;2023-02-26T17:47:32;3.40;76.10
15048;DHT22;7621;52.350;13.308;2023-02-26T17:49:57;3.40;76.30
15048;DHT22;7621;52.350;13.308;2023-02-26T17:52:24;3.30;76.60
15048;DHT22;7621;52.350;13.308;2023-02-26T17:54:50;3.30;76.80
15048;DHT22;7621;52.350;13.308;2023-02-26T17:57:18;3.30;77.10
15048;DHT22;7621;52.350;13.308;2023-02-26T17:59:44;3.30;77.50
15048;DHT22;7621;52.350;13.308;2023-02-26T18:02:16;3.30;77.90
15048;DHT22;7621;52.350;13.308;2023-02-26T18:04:42;3.30;78.10
15048;DHT22;7621;52.350;13.308;2023-02-26T18:07:10;3.30;78.20
15048;DHT22;7621;52.350;13.308;2023-02-26T18:09:44;3.30;78.30
15048;DHT22;7621;52.350;13.308;2023-02-26T18:12:19;3.30;78.20
15048;DHT22;7621;52.350;13.308;2023-02-26T18:14:46;3.40;78.30
15048;DHT22;7621;52.350;13.308;2023-02-26T18:17:14;3.40;78.30
15048;DHT22;7621;52.350;13.308;2023-02-26T18:19:41;3.50;78.30
15048;DHT22;7621;52.350;13.308;2023-02-26T18:22:12;3.50;78.10
15048;DHT22;7621;52.350;13.308;2023-02-26T18:24:38;3.50;78.00
15048;DHT22;7621;52.350;13.308;2023-02-26T18:27:05;3.50;78.10
15048;DHT22;7621;52.350;13.308;2023-02-26T18:29:30;3.40;78.50
15048;DHT22;7621;52.350;13.308;2023-02-26T18:31:56;3.30;78.80
15048;DHT22;7621;52.350;13.308;2023-02-26T18:34:24;3.30;79.10
15048;DHT22;7621;52.350;13.308;2023-02-26T18:36:50;3.20;79.40
15048;DHT22;7621;52.350;13.308;2023-02-26T18:39:16;3.10;80.00
15048;DHT22;7621;52.350;13.308;2023-02-26T18:41:45;3.00;80.40
15048;DHT22;7621;52.350;13.308;2023-02-26T18:44:10;3.00;80.70
15048;DHT22;7621;52.350;13.308;2023-02-26T18:46:36;2.90;80.90
15048;DHT22;7621;52.350;13.308;2023-02-26T18:49:05;2.90;81.80
15048;DHT22;7621;52.350;13.308;2023-02-26T18:51:30;2.80;81.50
15048;DHT22;7621;52.350;13.308;2023-02-26T18:53:56;2.70;81.80
15048;DHT22;7621;52.350;13.308;2023-02-26T18:56:22;2.70;82.30
15048;DHT22;7621;52.350;13.308;2023-02-26T18:58:48;2.60;82.50
15048;DHT22;7621;52.350;13.308;2023-02-26T19:01:13;2.60;82.60
15048;DHT22;7621;52.350;13.308;2023-02-26T19:03:39;2.60;82.60
15048;DHT22;7621;52.350;13.308;2023-02-26T19:06:06;2.50;82.60
15048;DHT22;7621;52.350;13.308;2023-02-26T19:08:35;2.50;82.80
15048;DHT22;7621;52.350;13.308;2023-02-26T19:11:08;2.40;82.80
15048;DHT22;7621;52.350;13.308;2023-02-26T19:13:34;2.40;82.90
15048;DHT22;7621;52.350;13.308;2023-02-26T19:15:59;2.30;82.90
15048;DHT22;7621;52.350;13.308;2023-02-26T19:18:25;2.30;83.20
15048;DHT22;7621;52.350;13.308;2023-02-26T19:20:50;2.30;83.40
15048;DHT22;7621;52.350;13.308;2023-02-26T19:23:16;2.20;83.40
15048;DHT22;7621;52.350;13.308;2023-02-26T19:25:41;2.20;83.50
15048;DHT22;7621;52.350;13.308;2023-02-26T19:28:07;2.20;83.90
15048;DHT22;7621;52.350;13.308;2023-02-26T19:30:32;2.10;84.20
15048;DHT22;7621;52.350;13.308;2023-02-26T19:32:58;2.10;84.30
15048;DHT22;7621;52.350;13.308;2023-02-26T19:35:24;2.00;85.10
15048;DHT22;7621;52.350;13.308;2023-02-26T19:37:54;2.00;84.50
15048;DHT22;7621;52.350;13.308;2023-02-26T19:40:20;2.00;84.70
15048;DHT22;7621;52.350;13.308;2023-02-26T19:42:46;2.00;85.00
15048;DHT22;7621;52.350;13.308;2023-02-26T19:45:13;1.90;85.10
15048;DHT22;7621;52.350;13.308;2023-02-26T19:47:39;1.90;85.20
15048;DHT22;7621;52.350;13.308;2023-02-26T19:50:06;1.80;85.40
15048;DHT22;7621;52.350;13.308;2023-02-26T19:52:33;1.80;85.70
15048;DHT22;7621;52.350;13.308;2023-02-26T19:55:01;1.80;86.10
15048;DHT22;7621;52.350;13.308;2023-02-26T19:57:27;1.70;86.40
15048;DHT22;7621;52.350;13.308;2023-02-26T19:59:53;1.70;86.60
15048;DHT22;7621;52.350;13.308;2023-02-26T20:02:19;1.70;86.90
15048;DHT22;7621;52.350;13.308;2023-02-26T20:04:44;1.60;87.20
15048;DHT22;7621;52.350;13.308;2023-02-26T20:07:10;1.60;87.40
15048;DHT22;7621;52.350;13.308;2023-02-26T20:09:36;1.60;87.70
15048;DHT22;7621;52.350;13.308;2023-02-26T20:12:02;1.50;88.00
15048;DHT22;7621;52.350;13.308;2023-02-26T20:14:27;1.50;88.40
15048;DHT22;7621;52.350;13.308;2023-02-26T20:16:53;1.50;88.60
15048;DHT22;7621;52.350;13.308;2023-02-26T20:19:18;1.40;88.90
15048;DHT22;7621;52.350;13.308;2023-02-26T20:21:45;1.40;89.10
15048;DHT22;7621;52.350;13.308;2023-02-26T20:24:10;1.40;89.10
15048;DHT22;7621;52.350;13.308;2023-02-26T20:26:36;1.40;89.30
15048;DHT22;7621;52.350;13.308;2023-02-26T20:29:02;1.40;89.50
15048;DHT22;7621;52.350;13.308;2023-02-26T20:31:28;1.30;89.60
15048;DHT22;7621;52.350;13.308;2023-02-26T20:33:54;1.30;89.80
15048;DHT22;7621;52.350;13.308;2023-02-26T20:36:20;1.30;90.00
15048;DHT22;7621;52.350;13.308;2023-02-26T20:38:46;1.20;90.00
15048;DHT22;7621;52.350;13.308;2023-02-26T20:41:12;1.20;90.10
15048;DHT22;7621;52.350;13.308;2023-02-26T20:43:37;1.20;90.10
15048;DHT22;7621;52.350;13.308;2023-02-26T20:46:03;1.20;90.20
15048;DHT22;7621;52.350;13.308;2023-02-26T20:48:29;1.20;90.30
15048;DHT22;7621;52.350;13.308;2023-02-26T20:51:02;1.10;90.30
15048;DHT22;7621;52.350;13.308;2023-02-26T20:53:30;1.10;90.40
15048;DHT22;7621;52.350;13.308;2023-02-26T20:55:56;1.10;90.40
15048;DHT22;7621;52.350;13.308;2023-02-26T20:58:23;1.10;90.40
15048;DHT22;7621;52.350;13.308;2023-02-26T21:00:48;1.00;90.50
15048;DHT22;7621;52.350;13.308;2023-02-26T21:03:14;1.00;90.60
15048;DHT22;7621;52.350;13.308;2023-02-26T21:05:39;1.00;90.60
15048;DHT22;7621;52.350;13.308;2023-02-26T21:08:07;1.00;90.70
15048;DHT22;7621;52.350;13.308;2023-02-26T21:10:34;1.00;90.70
15048;DHT22;7621;52.350;13.308;2023-02-26T21:13:00;0.90;90.70
